sensor_id;sensor_type;location;lat;lon;timestamp;temperature;humidity
41220;DHT22;26951;47.338;9.196;2022-11-20T00:02:09;4.70;75.00
41220;DHT22;26951;47.338;9.196;2022-11-20T00:04:54;4.70;74.70
41220;DHT22;26951;47.338;9.196;2022-11-20T00:07:38;4.70;74.40
41220;DHT22;26951;47.338;9.196;2022-11-20T00:10:22;4.70;74.20
41220;DHT22;26951;47.338;9.196;2022-11-20T00:13:07;4.70;74.00
41220;DHT22;26951;47.338;9.196;2022-11-20T00:15:57;4.70;74.30
41220;DHT22;26951;47.338;9.196;2022-11-20T00:18:42;4.70;74.40
41220;DHT22;26951;47.338;9.196;2022-11-20T00:21:28;4.70;74.50
41220;DHT22;26951;47.338;9.196;2022-11-20T00:24:13;4.70;74.80
41220;DHT22;26951;47.338;9.196;2022-11-20T00:26:57;4.70;75.00
41220;DHT22;26951;47.338;9.196;2022-11-20T00:29:41;4.70;74.40
41220;DHT22;26951;47.338;9.196;2022-11-20T00:32:25;4.70;74.50
41220;DHT22;26951;47.338;9.196;2022-11-20T00:35:09;4.70;75.20
41220;DHT22;26951;47.338;9.196;2022-11-20T00:37:53;4.70;75.20
41220;DHT22;26951;47.338;9.196;2022-11-20T00:40:37;4.80;75.10
41220;DHT22;26951;47.338;9.196;2022-11-20T00:43:21;4.70;74.30
41220;DHT22;26951;47.338;9.196;2022-11-20T00:46:14;4.70;74.00
41220;DHT22;26951;47.338;9.196;2022-11-20T00:48:58;4.80;74.40
41220;DHT22;26951;47.338;9.196;2022-11-20T00:51:42;4.80;74.70
41220;DHT22;26951;47.338;9.196;2022-11-20T00:54:27;4.80;74.30
41220;DHT22;26951;47.338;9.196;2022-11-20T00:57:11;4.80;74.10
41220;DHT22;26951;47.338;9.196;2022-11-20T00:59:55;4.70;73.60
41220;DHT22;26951;47.338;9.196;2022-11-20T01:02:39;4.70;74.10
41220;DHT22;26951;47.338;9.196;2022-11-20T01:05:23;4.80;74.50
41220;DHT22;26951;47.338;9.196;2022-11-20T01:08:08;4.70;74.30
41220;DHT22;26951;47.338;9.196;2022-11-20T01:10:52;4.70;74.20
41220;DHT22;26951;47.338;9.196;2022-11-20T01:13:36;4.70;73.50
41220;DHT22;26951;47.338;9.196;2022-11-20T01:16:24;4.70;73.40
41220;DHT22;26951;47.338;9.196;2022-11-20T01:19:12;4.70;73.00
41220;DHT22;26951;47.338;9.196;2022-11-20T01:21:57;4.70;73.10
41220;DHT22;26951;47.338;9.196;2022-11-20T01:24:41;4.70;73.50
41220;DHT22;26951;47.338;9.196;2022-11-20T01:27:26;4.70;73.80
41220;DHT22;26951;47.338;9.196;2022-11-20T01:30:10;4.70;73.30
41220;DHT22;26951;47.338;9.196;2022-11-20T01:32:55;4.70;73.60
41220;DHT22;26951;47.338;9.196;2022-11-20T01:35:39;4.70;73.10
41220;DHT22;26951;47.338;9.196;2022-11-20T01:38:23;4.60;73.80
41220;DHT22;26951;47.338;9.196;2022-11-20T01:41:08;4.60;74.20
41220;DHT22;26951;47.338;9.196;2022-11-20T01:43:53;4.50;74.70
41220;DHT22;26951;47.338;9.196;2022-11-20T01:46:39;4.50;73.60
41220;DHT22;26951;47.338;9.196;2022-11-20T01:49:30;4.50;73.60
41220;DHT22;26951;47.338;9.196;2022-11-20T01:52:20;4.50;73.00
41220;DHT22;26951;47.338;9.196;2022-11-20T01:55:13;4.50;72.80
41220;DHT22;26951;47.338;9.196;2022-11-20T01:57:59;4.40;70.70
41220;DHT22;26951;47.338;9.196;2022-11-20T02:04:24;4.30;67.80
41220;DHT22;26951;47.338;9.196;2022-11-20T02:07:09;4.30;67.10
41220;DHT22;26951;47.338;9.196;2022-11-20T02:09:54;4.20;66.50
41220;DHT22;26951;47.338;9.196;2022-11-20T02:12:38;4.10;65.60
41220;DHT22;26951;47.338;9.196;2022-11-20T02:15:42;4.00;65.20
41220;DHT22;26951;47.338;9.196;2022-11-20T02:18:27;3.90;65.10
41220;DHT22;26951;47.338;9.196;2022-11-20T02:21:38;3.90;66.10
41220;DHT22;26951;47.338;9.196;2022-11-20T02:24:24;3.80;67.70
41220;DHT22;26951;47.338;9.196;2022-11-20T02:27:13;3.80;68.50
41220;DHT22;26951;47.338;9.196;2022-11-20T02:30:04;3.70;69.20
41220;DHT22;26951;47.338;9.196;2022-11-20T02:32:52;3.70;69.60
41220;DHT22;26951;47.338;9.196;2022-11-20T02:35:44;3.70;70.00
41220;DHT22;26951;47.338;9.196;2022-11-20T02:38:28;3.70;70.00
41220;DHT22;26951;47.338;9.196;2022-11-20T02:41:12;3.60;69.90
41220;DHT22;26951;47.338;9.196;2022-11-20T02:43:56;3.60;70.30
41220;DHT22;26951;47.338;9.196;2022-11-20T02:46:41;3.50;70.70
41220;DHT22;26951;47.338;9.196;2022-11-20T02:49:25;3.50;71.60
41220;DHT22;26951;47.338;9.196;2022-11-20T02:52:09;3.50;72.20
41220;DHT22;26951;47.338;9.196;2022-11-20T02:54:53;3.50;72.80
41220;DHT22;26951;47.338;9.196;2022-11-20T02:57:38;3.60;74.00
41220;DHT22;26951;47.338;9.196;2022-11-20T03:00:22;3.60;74.10
41220;DHT22;26951;47.338;9.196;2022-11-20T03:03:06;3.60;74.60
41220;DHT22;26951;47.338;9.196;2022-11-20T03:05:50;3.70;75.00
41220;DHT22;26951;47.338;9.196;2022-11-20T03:08:35;3.70;74.70
41220;DHT22;26951;47.338;9.196;2022-11-20T03:11:20;3.70;74.10
41220;DHT22;26951;47.338;9.196;2022-11-20T03:14:05;3.60;74.10
41220;DHT22;26951;47.338;9.196;2022-11-20T03:16:49;3.60;74.60
41220;DHT22;26951;47.338;9.196;2022-11-20T03:19:33;3.60;75.40
41220;DHT22;26951;47.338;9.196;2022-11-20T03:22:18;3.60;76.00
41220;DHT22;26951;47.338;9.196;2022-11-20T03:25:02;3.70;76.10
41220;DHT22;26951;47.338;9.196;2022-11-20T03:27:46;3.70;75.90
41220;DHT22;26951;47.338;9.196;2022-11-20T03:30:30;3.70;75.90
41220;DHT22;26951;47.338;9.196;2022-11-20T03:33:14;3.70;76.00
41220;DHT22;26951;47.338;9.196;2022-11-20T03:36:04;3.70;76.10
41220;DHT22;26951;47.338;9.196;2022-11-20T03:38:49;3.70;76.00
41220;DHT22;26951;47.338;9.196;2022-11-20T03:41:40;3.80;75.80
41220;DHT22;26951;47.338;9.196;2022-11-20T03:44:24;3.80;75.90
41220;DHT22;26951;47.338;9.196;2022-11-20T03:47:08;3.80;76.10
41220;DHT22;26951;47.338;9.196;2022-11-20T03:49:53;3.80;76.30
41220;DHT22;26951;47.338;9.196;2022-11-20T03:52:37;3.80;76.20
41220;DHT22;26951;47.338;9.196;2022-11-20T03:55:22;3.90;76.60
41220;DHT22;26951;47.338;9.196;2022-11-20T03:58:06;3.90;77.30
41220;DHT22;26951;47.338;9.196;2022-11-20T04:00:50;3.90;77.50
41220;DHT22;26951;47.338;9.196;2022-11-20T04:03:35;3.90;77.50
41220;DHT22;26951;47.338;9.196;2022-11-20T04:06:22;3.90;77.60
41220;DHT22;26951;47.338;9.196;2022-11-20T04:09:07;3.90;77.00
41220;DHT22;26951;47.338;9.196;2022-11-20T04:11:50;4.00;77.20
41220;DHT22;26951;47.338;9.196;2022-11-20T04:14:35;4.00;76.60
41220;DHT22;26951;47.338;9.196;2022-11-20T04:17:19;3.90;76.60
41220;DHT22;26951;47.338;9.196;2022-11-20T04:20:03;4.00;76.90
41220;DHT22;26951;47.338;9.196;2022-11-20T04:22:48;4.00;75.90
41220;DHT22;26951;47.338;9.196;2022-11-20T04:25:33;4.00;76.10
41220;DHT22;26951;47.338;9.196;2022-11-20T04:28:18;3.90;75.70
41220;DHT22;26951;47.338;9.196;2022-11-20T04:33:47;4.00;76.70
41220;DHT22;26951;47.338;9.196;2022-11-20T04:36:32;4.00;77.00
41220;DHT22;26951;47.338;9.196;2022-11-20T04:39:16;4.00;77.20
41220;DHT22;26951;47.338;9.196;2022-11-20T04:42:00;4.00;77.10
41220;DHT22;26951;47.338;9.196;2022-11-20T04:45:04;4.00;77.20
41220;DHT22;26951;47.338;9.196;2022-11-20T04:47:49;4.00;77.20
41220;DHT22;26951;47.338;9.196;2022-11-20T04:50:33;4.00;77.10
41220;DHT22;26951;47.338;9.196;2022-11-20T04:53:17;4.10;77.10
41220;DHT22;26951;47.338;9.196;2022-11-20T04:56:04;4.10;76.90
41220;DHT22;26951;47.338;9.196;2022-11-20T04:58:48;4.10;76.90
41220;DHT22;26951;47.338;9.196;2022-11-20T05:01:32;4.10;76.60
41220;DHT22;26951;47.338;9.196;2022-11-20T05:04:16;4.10;76.60
41220;DHT22;26951;47.338;9.196;2022-11-20T05:07:01;4.10;77.00
41220;DHT22;26951;47.338;9.196;2022-11-20T05:09:45;4.10;76.40
41220;DHT22;26951;47.338;9.196;2022-11-20T05:12:29;4.10;76.30
41220;DHT22;26951;47.338;9.196;2022-11-20T05:15:13;4.10;76.80
41220;DHT22;26951;47.338;9.196;2022-11-20T05:17:57;4.10;76.10
41220;DHT22;26951;47.338;9.196;2022-11-20T05:20:41;4.00;75.10
41220;DHT22;26951;47.338;9.196;2022-11-20T05:23:26;4.00;74.80
41220;DHT22;26951;47.338;9.196;2022-11-20T05:26:14;4.00;74.30
41220;DHT22;26951;47.338;9.196;2022-11-20T05:28:58;4.00;73.90
41220;DHT22;26951;47.338;9.196;2022-11-20T05:31:42;3.90;73.90
41220;DHT22;26951;47.338;9.196;2022-11-20T05:34:26;3.90;73.90
41220;DHT22;26951;47.338;9.196;2022-11-20T05:37:10;3.90;73.60
41220;DHT22;26951;47.338;9.196;2022-11-20T05:39:54;3.80;73.20
41220;DHT22;26951;47.338;9.196;2022-11-20T05:42:38;3.80;72.80
41220;DHT22;26951;47.338;9.196;2022-11-20T05:45:23;3.70;72.40
41220;DHT22;26951;47.338;9.196;2022-11-20T05:48:07;3.70;73.00
41220;DHT22;26951;47.338;9.196;2022-11-20T05:50:50;3.70;73.40
41220;DHT22;26951;47.338;9.196;2022-11-20T05:53:35;3.60;73.50
41220;DHT22;26951;47.338;9.196;2022-11-20T05:56:21;3.60;73.10
41220;DHT22;26951;47.338;9.196;2022-11-20T05:59:06;3.60;72.80
41220;DHT22;26951;47.338;9.196;2022-11-20T06:01:50;3.50;73.20
41220;DHT22;26951;47.338;9.196;2022-11-20T06:04:34;3.50;73.60
41220;DHT22;26951;47.338;9.196;2022-11-20T06:07:18;3.50;73.60
41220;DHT22;26951;47.338;9.196;2022-11-20T06:10:03;3.40;72.50
41220;DHT22;26951;47.338;9.196;2022-11-20T06:12:46;3.40;73.20
41220;DHT22;26951;47.338;9.196;2022-11-20T06:15:31;3.40;73.70
41220;DHT22;26951;47.338;9.196;2022-11-20T06:18:15;3.40;73.60
41220;DHT22;26951;47.338;9.196;2022-11-20T06:21:20;3.40;73.60
41220;DHT22;26951;47.338;9.196;2022-11-20T06:24:05;3.40;73.80
41220;DHT22;26951;47.338;9.196;2022-11-20T06:26:49;3.30;74.00
41220;DHT22;26951;47.338;9.196;2022-11-20T06:29:33;3.30;74.10
41220;DHT22;26951;47.338;9.196;2022-11-20T06:32:17;3.30;74.30
41220;DHT22;26951;47.338;9.196;2022-11-20T06:35:01;3.30;74.30
41220;DHT22;26951;47.338;9.196;2022-11-20T06:37:45;3.30;74.90
41220;DHT22;26951;47.338;9.196;2022-11-20T06:40:29;3.30;75.70
41220;DHT22;26951;47.338;9.196;2022-11-20T06:43:13;3.40;76.50
41220;DHT22;26951;47.338;9.196;2022-11-20T06:45:58;3.40;76.60
41220;DHT22;26951;47.338;9.196;2022-11-20T06:48:43;3.40;76.80
41220;DHT22;26951;47.338;9.196;2022-11-20T06:51:27;3.40;77.20
41220;DHT22;26951;47.338;9.196;2022-11-20T06:54:11;3.40;77.60
41220;DHT22;26951;47.338;9.196;2022-11-20T06:56:56;3.50;77.40
41220;DHT22;26951;47.338;9.196;2022-11-20T06:59:40;3.50;76.70
41220;DHT22;26951;47.338;9.196;2022-11-20T07:02:24;3.50;77.10
41220;DHT22;26951;47.338;9.196;2022-11-20T07:05:08;3.50;77.30
41220;DHT22;26951;47.338;9.196;2022-11-20T07:07:55;3.50;77.60
41220;DHT22;26951;47.338;9.196;2022-11-20T07:10:40;3.60;77.60
41220;DHT22;26951;47.338;9.196;2022-11-20T07:13:24;3.60;77.20
41220;DHT22;26951;47.338;9.196;2022-11-20T07:16:09;3.60;77.30
41220;DHT22;26951;47.338;9.196;2022-11-20T07:18:53;3.70;76.60
41220;DHT22;26951;47.338;9.196;2022-11-20T07:21:37;3.70;77.10
41220;DHT22;26951;47.338;9.196;2022-11-20T07:24:21;3.70;76.80
41220;DHT22;26951;47.338;9.196;2022-11-20T07:27:05;3.70;77.10
41220;DHT22;26951;47.338;9.196;2022-11-20T07:29:50;3.80;77.60
41220;DHT22;26951;47.338;9.196;2022-11-20T07:32:34;3.80;77.60
41220;DHT22;26951;47.338;9.196;2022-11-20T07:35:19;3.90;76.30
41220;DHT22;26951;47.338;9.196;2022-11-20T07:38:03;3.90;76.40
41220;DHT22;26951;47.338;9.196;2022-11-20T07:40:47;3.90;77.00
41220;DHT22;26951;47.338;9.196;2022-11-20T07:43:32;3.90;76.60
41220;DHT22;26951;47.338;9.196;2022-11-20T07:46:17;3.90;76.20
41220;DHT22;26951;47.338;9.196;2022-11-20T07:49:01;3.90;75.90
41220;DHT22;26951;47.338;9.196;2022-11-20T07:51:45;4.00;75.70
41220;DHT22;26951;47.338;9.196;2022-11-20T07:54:29;4.00;73.90
41220;DHT22;26951;47.338;9.196;2022-11-20T07:57:13;4.00;74.10
41220;DHT22;26951;47.338;9.196;2022-11-20T07:59:57;4.00;74.20
41220;DHT22;26951;47.338;9.196;2022-11-20T08:02:41;4.00;74.10
41220;DHT22;26951;47.338;9.196;2022-11-20T08:05:26;4.00;74.80
41220;DHT22;26951;47.338;9.196;2022-11-20T08:08:10;4.10;74.90
41220;DHT22;26951;47.338;9.196;2022-11-20T08:10:54;4.10;73.70
41220;DHT22;26951;47.338;9.196;2022-11-20T08:14:00;4.10;73.80
41220;DHT22;26951;47.338;9.196;2022-11-20T08:16:56;4.10;73.80
41220;DHT22;26951;47.338;9.196;2022-11-20T08:19:40;4.10;73.10
41220;DHT22;26951;47.338;9.196;2022-11-20T08:22:24;4.10;73.70
41220;DHT22;26951;47.338;9.196;2022-11-20T08:25:08;4.10;73.60
41220;DHT22;26951;47.338;9.196;2022-11-20T08:27:53;4.10;73.40
41220;DHT22;26951;47.338;9.196;2022-11-20T08:30:37;4.10;72.70
41220;DHT22;26951;47.338;9.196;2022-11-20T08:33:21;4.20;73.90
41220;DHT22;26951;47.338;9.196;2022-11-20T08:36:06;4.10;73.20
41220;DHT22;26951;47.338;9.196;2022-11-20T08:38:52;4.10;73.80
41220;DHT22;26951;47.338;9.196;2022-11-20T08:41:36;4.10;72.60
41220;DHT22;26951;47.338;9.196;2022-11-20T08:44:21;4.20;73.40
41220;DHT22;26951;47.338;9.196;2022-11-20T08:47:05;4.20;72.10
41220;DHT22;26951;47.338;9.196;2022-11-20T08:49:49;4.10;71.80
41220;DHT22;26951;47.338;9.196;2022-11-20T08:52:33;4.10;72.80
41220;DHT22;26951;47.338;9.196;2022-11-20T08:55:17;4.20;71.90
41220;DHT22;26951;47.338;9.196;2022-11-20T08:58:06;4.20;71.50
41220;DHT22;26951;47.338;9.196;2022-11-20T09:00:50;4.30;70.50
41220;DHT22;26951;47.338;9.196;2022-11-20T09:03:35;4.30;71.60
41220;DHT22;26951;47.338;9.196;2022-11-20T09:06:19;4.40;72.30
41220;DHT22;26951;47.338;9.196;2022-11-20T09:09:03;4.50;73.10
41220;DHT22;26951;47.338;9.196;2022-11-20T09:11:47;4.50;70.70
41220;DHT22;26951;47.338;9.196;2022-11-20T09:14:33;4.50;68.90
41220;DHT22;26951;47.338;9.196;2022-11-20T09:17:18;4.50;69.30
41220;DHT22;26951;47.338;9.196;2022-11-20T09:20:02;4.60;70.80
41220;DHT22;26951;47.338;9.196;2022-11-20T09:22:47;4.60;70.80
41220;DHT22;26951;47.338;9.196;2022-11-20T09:25:31;4.60;69.50
41220;DHT22;26951;47.338;9.196;2022-11-20T09:28:15;4.70;69.60
41220;DHT22;26951;47.338;9.196;2022-11-20T09:31:08;4.70;68.80
41220;DHT22;26951;47.338;9.196;2022-11-20T09:33:53;4.80;68.10
41220;DHT22;26951;47.338;9.196;2022-11-20T09:36:37;4.80;68.50
41220;DHT22;26951;47.338;9.196;2022-11-20T09:39:21;4.70;67.40
41220;DHT22;26951;47.338;9.196;2022-11-20T09:42:18;4.80;68.30
41220;DHT22;26951;47.338;9.196;2022-11-20T09:54:19;4.90;70.00
41220;DHT22;26951;47.338;9.196;2022-11-20T09:57:14;4.90;66.70
41220;DHT22;26951;47.338;9.196;2022-11-20T10:00:04;4.90;68.80
41220;DHT22;26951;47.338;9.196;2022-11-20T10:03:16;5.20;70.30
41220;DHT22;26951;47.338;9.196;2022-11-20T10:06:01;5.60;71.20
41220;DHT22;26951;47.338;9.196;2022-11-20T10:09:18;6.00;68.70
41220;DHT22;26951;47.338;9.196;2022-11-20T10:12:19;6.30;64.90
41220;DHT22;26951;47.338;9.196;2022-11-20T10:24:04;6.30;60.00
41220;DHT22;26951;47.338;9.196;2022-11-20T10:27:15;6.10;59.20
41220;DHT22;26951;47.338;9.196;2022-11-20T10:33:06;6.00;61.30
41220;DHT22;26951;47.338;9.196;2022-11-20T10:36:21;5.90;59.60
41220;DHT22;26951;47.338;9.196;2022-11-20T10:39:19;5.90;60.50
41220;DHT22;26951;47.338;9.196;2022-11-20T10:42:11;5.80;61.70
41220;DHT22;26951;47.338;9.196;2022-11-20T10:45:16;5.80;61.40
41220;DHT22;26951;47.338;9.196;2022-11-20T10:53:53;5.60;58.80
41220;DHT22;26951;47.338;9.196;2022-11-20T10:56:51;5.50;59.20
41220;DHT22;26951;47.338;9.196;2022-11-20T10:59:57;5.50;60.00
41220;DHT22;26951;47.338;9.196;2022-11-20T11:02:53;5.50;59.60
41220;DHT22;26951;47.338;9.196;2022-11-20T11:08:44;5.30;59.20
41220;DHT22;26951;47.338;9.196;2022-11-20T11:11:32;5.40;59.30
41220;DHT22;26951;47.338;9.196;2022-11-20T11:14:17;5.40;59.90
41220;DHT22;26951;47.338;9.196;2022-11-20T11:17:01;5.70;60.00
41220;DHT22;26951;47.338;9.196;2022-11-20T11:19:45;6.10;62.40
41220;DHT22;26951;47.338;9.196;2022-11-20T11:22:34;6.60;60.70
41220;DHT22;26951;47.338;9.196;2022-11-20T11:25:30;6.90;57.80
41220;DHT22;26951;47.338;9.196;2022-11-20T11:31:01;7.50;56.90
41220;DHT22;26951;47.338;9.196;2022-11-20T11:33:45;7.50;54.80
41220;DHT22;26951;47.338;9.196;2022-11-20T11:36:30;7.60;56.20
41220;DHT22;26951;47.338;9.196;2022-11-20T11:39:15;7.50;55.00
41220;DHT22;26951;47.338;9.196;2022-11-20T11:42:01;7.50;53.50
41220;DHT22;26951;47.338;9.196;2022-11-20T11:44:47;7.50;54.80
41220;DHT22;26951;47.338;9.196;2022-11-20T11:47:51;7.50;54.80
41220;DHT22;26951;47.338;9.196;2022-11-20T11:50:36;7.50;54.10
41220;DHT22;26951;47.338;9.196;2022-11-20T11:53:22;7.40;53.80
41220;DHT22;26951;47.338;9.196;2022-11-20T11:56:11;7.40;53.20
41220;DHT22;26951;47.338;9.196;2022-11-20T11:58:57;7.70;53.90
41220;DHT22;26951;47.338;9.196;2022-11-20T12:01:47;8.00;55.80
41220;DHT22;26951;47.338;9.196;2022-11-20T12:04:54;8.10;52.30
41220;DHT22;26951;47.338;9.196;2022-11-20T12:08:32;8.20;50.80
41220;DHT22;26951;47.338;9.196;2022-11-20T12:10:57;8.00;52.20
41220;DHT22;26951;47.338;9.196;2022-11-20T12:13:55;7.90;52.80
41220;DHT22;26951;47.338;9.196;2022-11-20T12:16:40;7.70;52.70
41220;DHT22;26951;47.338;9.196;2022-11-20T12:23:05;7.80;57.60
41220;DHT22;26951;47.338;9.196;2022-11-20T12:25:56;8.30;56.40
41220;DHT22;26951;47.338;9.196;2022-11-20T12:29:11;8.70;53.50
41220;DHT22;26951;47.338;9.196;2022-11-20T12:48:20;9.10;46.00
41220;DHT22;26951;47.338;9.196;2022-11-20T12:51:21;9.20;46.90
41220;DHT22;26951;47.338;9.196;2022-11-20T12:54:44;9.20;46.60
41220;DHT22;26951;47.338;9.196;2022-11-20T13:01:00;9.40;47.80
41220;DHT22;26951;47.338;9.196;2022-11-20T13:03:54;9.50;45.10
41220;DHT22;26951;47.338;9.196;2022-11-20T13:06:41;9.50;47.10
41220;DHT22;26951;47.338;9.196;2022-11-20T13:09:27;9.40;45.10
41220;DHT22;26951;47.338;9.196;2022-11-20T13:12:36;9.50;48.40
41220;DHT22;26951;47.338;9.196;2022-11-20T13:16:19;9.40;47.30
41220;DHT22;26951;47.338;9.196;2022-11-20T13:18:42;9.30;49.40
41220;DHT22;26951;47.338;9.196;2022-11-20T13:24:24;9.30;46.50
41220;DHT22;26951;47.338;9.196;2022-11-20T13:30:16;9.20;47.10
41220;DHT22;26951;47.338;9.196;2022-11-20T13:33:07;9.20;47.10
41220;DHT22;26951;47.338;9.196;2022-11-20T13:36:22;9.20;47.80
41220;DHT22;26951;47.338;9.196;2022-11-20T13:39:08;9.20;47.30
41220;DHT22;26951;47.338;9.196;2022-11-20T13:41:59;9.20;47.10
41220;DHT22;26951;47.338;9.196;2022-11-20T13:44:51;9.20;47.50
41220;DHT22;26951;47.338;9.196;2022-11-20T13:47:37;9.00;45.10
41220;DHT22;26951;47.338;9.196;2022-11-20T13:56:33;8.60;47.20
41220;DHT22;26951;47.338;9.196;2022-11-20T14:02:34;8.60;48.30
41220;DHT22;26951;47.338;9.196;2022-11-20T14:05:21;8.70;48.60
41220;DHT22;26951;47.338;9.196;2022-11-20T14:08:14;8.60;46.70
41220;DHT22;26951;47.338;9.196;2022-11-20T14:11:06;8.50;44.70
41220;DHT22;26951;47.338;9.196;2022-11-20T14:14:16;8.40;45.00
41220;DHT22;26951;47.338;9.196;2022-11-20T14:17:23;8.30;45.20
41220;DHT22;26951;47.338;9.196;2022-11-20T14:20:12;8.20;47.00
41220;DHT22;26951;47.338;9.196;2022-11-20T14:22:58;8.20;45.50
41220;DHT22;26951;47.338;9.196;2022-11-20T14:25:43;8.20;46.00
41220;DHT22;26951;47.338;9.196;2022-11-20T14:28:30;8.30;44.90
41220;DHT22;26951;47.338;9.196;2022-11-20T14:31:26;8.30;45.40
41220;DHT22;26951;47.338;9.196;2022-11-20T14:34:38;8.40;45.40
41220;DHT22;26951;47.338;9.196;2022-11-20T14:37:24;8.40;45.00
41220;DHT22;26951;47.338;9.196;2022-11-20T14:40:31;8.40;45.60
41220;DHT22;26951;47.338;9.196;2022-11-20T14:43:25;8.40;46.50
41220;DHT22;26951;47.338;9.196;2022-11-20T14:46:10;8.40;45.50
41220;DHT22;26951;47.338;9.196;2022-11-20T14:48:57;8.30;44.50
41220;DHT22;26951;47.338;9.196;2022-11-20T14:51:44;8.30;45.80
41220;DHT22;26951;47.338;9.196;2022-11-20T14:54:30;8.30;46.40
41220;DHT22;26951;47.338;9.196;2022-11-20T14:57:26;8.20;46.30
41220;DHT22;26951;47.338;9.196;2022-11-20T15:02:58;8.00;44.80
41220;DHT22;26951;47.338;9.196;2022-11-20T15:05:48;7.90;45.70
41220;DHT22;26951;47.338;9.196;2022-11-20T15:08:34;7.70;45.80
41220;DHT22;26951;47.338;9.196;2022-11-20T15:11:20;7.60;46.40
41220;DHT22;26951;47.338;9.196;2022-11-20T15:14:06;7.40;46.70
41220;DHT22;26951;47.338;9.196;2022-11-20T15:16:51;7.20;47.20
41220;DHT22;26951;47.338;9.196;2022-11-20T15:19:36;7.10;47.10
41220;DHT22;26951;47.338;9.196;2022-11-20T15:22:20;7.00;48.20
41220;DHT22;26951;47.338;9.196;2022-11-20T15:25:15;6.90;48.10
41220;DHT22;26951;47.338;9.196;2022-11-20T15:27:59;6.80;48.30
41220;DHT22;26951;47.338;9.196;2022-11-20T15:30:45;6.70;48.00
41220;DHT22;26951;47.338;9.196;2022-11-20T15:33:31;6.60;48.10
41220;DHT22;26951;47.338;9.196;2022-11-20T15:36:15;6.50;48.30
41220;DHT22;26951;47.338;9.196;2022-11-20T15:38:59;6.40;48.40
41220;DHT22;26951;47.338;9.196;2022-11-20T15:41:43;6.30;48.30
41220;DHT22;26951;47.338;9.196;2022-11-20T15:44:27;6.20;48.20
41220;DHT22;26951;47.338;9.196;2022-11-20T15:47:12;6.10;47.90
41220;DHT22;26951;47.338;9.196;2022-11-20T15:49:56;5.90;48.60
41220;DHT22;26951;47.338;9.196;2022-11-20T15:52:40;5.80;50.60
41220;DHT22;26951;47.338;9.196;2022-11-20T15:55:24;5.70;49.40
41220;DHT22;26951;47.338;9.196;2022-11-20T15:58:08;5.60;50.20
41220;DHT22;26951;47.338;9.196;2022-11-20T16:00:52;5.50;49.40
41220;DHT22;26951;47.338;9.196;2022-11-20T16:03:37;5.30;50.30
41220;DHT22;26951;47.338;9.196;2022-11-20T16:06:21;5.20;50.40
41220;DHT22;26951;47.338;9.196;2022-11-20T16:09:05;5.10;51.10
41220;DHT22;26951;47.338;9.196;2022-11-20T16:11:50;5.00;51.30
41220;DHT22;26951;47.338;9.196;2022-11-20T16:14:34;4.80;51.90
41220;DHT22;26951;47.338;9.196;2022-11-20T16:17:37;4.80;53.50
41220;DHT22;26951;47.338;9.196;2022-11-20T16:20:27;4.70;53.60
41220;DHT22;26951;47.338;9.196;2022-11-20T16:23:11;4.60;53.90
41220;DHT22;26951;47.338;9.196;2022-11-20T16:25:55;4.50;53.60
41220;DHT22;26951;47.338;9.196;2022-11-20T16:28:40;4.50;54.40
41220;DHT22;26951;47.338;9.196;2022-11-20T16:31:24;4.40;54.30
41220;DHT22;26951;47.338;9.196;2022-11-20T16:34:08;4.40;54.70
41220;DHT22;26951;47.338;9.196;2022-11-20T16:36:52;4.30;55.10
41220;DHT22;26951;47.338;9.196;2022-11-20T16:39:37;4.30;55.70
41220;DHT22;26951;47.338;9.196;2022-11-20T16:42:21;4.20;56.00
41220;DHT22;26951;47.338;9.196;2022-11-20T16:45:05;4.20;57.00
41220;DHT22;26951;47.338;9.196;2022-11-20T16:47:50;4.20;57.50
41220;DHT22;26951;47.338;9.196;2022-11-20T16:50:34;4.20;57.50
41220;DHT22;26951;47.338;9.196;2022-11-20T16:53:20;4.20;57.80
41220;DHT22;26951;47.338;9.196;2022-11-20T16:56:12;4.20;58.20
41220;DHT22;26951;47.338;9.196;2022-11-20T16:58:58;4.20;58.10
41220;DHT22;26951;47.338;9.196;2022-11-20T17:01:42;4.20;58.30
41220;DHT22;26951;47.338;9.196;2022-11-20T17:04:27;4.20;58.60
41220;DHT22;26951;47.338;9.196;2022-11-20T17:07:11;4.20;58.60
41220;DHT22;26951;47.338;9.196;2022-11-20T17:09:55;4.10;58.40
41220;DHT22;26951;47.338;9.196;2022-11-20T17:12:39;4.10;58.50
41220;DHT22;26951;47.338;9.196;2022-11-20T17:15:23;4.10;58.40
41220;DHT22;26951;47.338;9.196;2022-11-20T17:18:07;4.10;58.70
41220;DHT22;26951;47.338;9.196;2022-11-20T17:20:51;4.10;58.90
41220;DHT22;26951;47.338;9.196;2022-11-20T17:23:38;4.00;57.30
41220;DHT22;26951;47.338;9.196;2022-11-20T17:26:23;4.00;57.30
41220;DHT22;26951;47.338;9.196;2022-11-20T17:29:13;3.90;57.70
41220;DHT22;26951;47.338;9.196;2022-11-20T17:31:57;3.80;58.10
41220;DHT22;26951;47.338;9.196;2022-11-20T17:34:42;3.80;58.40
41220;DHT22;26951;47.338;9.196;2022-11-20T17:37:26;3.80;59.20
41220;DHT22;26951;47.338;9.196;2022-11-20T17:40:10;3.80;59.40
41220;DHT22;26951;47.338;9.196;2022-11-20T17:42:54;3.80;59.00
41220;DHT22;26951;47.338;9.196;2022-11-20T17:45:38;3.70;59.40
41220;DHT22;26951;47.338;9.196;2022-11-20T17:48:22;3.70;59.50
41220;DHT22;26951;47.338;9.196;2022-11-20T17:51:12;3.70;59.50
41220;DHT22;26951;47.338;9.196;2022-11-20T17:53:59;3.70;59.50
41220;DHT22;26951;47.338;9.196;2022-11-20T17:56:44;3.70;60.00
41220;DHT22;26951;47.338;9.196;2022-11-20T17:59:47;3.70;60.50
41220;DHT22;26951;47.338;9.196;2022-11-20T18:02:31;3.70;60.50
41220;DHT22;26951;47.338;9.196;2022-11-20T18:05:15;3.60;60.40
41220;DHT22;26951;47.338;9.196;2022-11-20T18:07:59;3.60;59.60
41220;DHT22;26951;47.338;9.196;2022-11-20T18:10:43;3.60;59.30
41220;DHT22;26951;47.338;9.196;2022-11-20T18:13:27;3.60;58.60
41220;DHT22;26951;47.338;9.196;2022-11-20T18:16:34;3.50;58.20
41220;DHT22;26951;47.338;9.196;2022-11-20T18:19:24;3.50;58.20
41220;DHT22;26951;47.338;9.196;2022-11-20T18:22:09;3.40;59.00
41220;DHT22;26951;47.338;9.196;2022-11-20T18:24:53;3.30;59.10
41220;DHT22;26951;47.338;9.196;2022-11-20T18:27:38;3.20;58.90
41220;DHT22;26951;47.338;9.196;2022-11-20T18:30:22;3.20;59.00
41220;DHT22;26951;47.338;9.196;2022-11-20T18:33:06;3.20;60.70
41220;DHT22;26951;47.338;9.196;2022-11-20T18:35:50;3.20;60.80
41220;DHT22;26951;47.338;9.196;2022-11-20T18:38:35;3.20;60.60
41220;DHT22;26951;47.338;9.196;2022-11-20T18:41:21;3.20;61.00
41220;DHT22;26951;47.338;9.196;2022-11-20T18:44:29;3.20;60.90
41220;DHT22;26951;47.338;9.196;2022-11-20T18:47:34;3.20;61.30
41220;DHT22;26951;47.338;9.196;2022-11-20T18:50:21;3.20;61.60
41220;DHT22;26951;47.338;9.196;2022-11-20T18:53:06;3.20;61.50
41220;DHT22;26951;47.338;9.196;2022-11-20T18:55:50;3.20;61.50
41220;DHT22;26951;47.338;9.196;2022-11-20T18:58:34;3.20;62.30
41220;DHT22;26951;47.338;9.196;2022-11-20T19:01:18;3.20;62.60
41220;DHT22;26951;47.338;9.196;2022-11-20T19:04:09;3.20;62.60
41220;DHT22;26951;47.338;9.196;2022-11-20T19:06:54;3.20;62.80
41220;DHT22;26951;47.338;9.196;2022-11-20T19:09:41;3.20;63.60
41220;DHT22;26951;47.338;9.196;2022-11-20T19:12:25;3.20;63.60
41220;DHT22;26951;47.338;9.196;2022-11-20T19:15:09;3.20;64.10